createdAt,value
2019-01-29T00:02:01.431Z,96827.28
2019-01-29T00:04:39.127Z,96821.64
2019-01-29T00:07:10.085Z,96824.14
2019-01-29T00:09:41.031Z,96842.20
2019-01-29T00:12:11.936Z,96824.62
2019-01-29T00:14:42.968Z,96842.10
2019-01-29T00:17:14.054Z,96846.45
2019-01-29T00:19:44.952Z,96843.01
2019-01-29T00:22:15.999Z,96853.27
2019-01-29T00:24:47.158Z,96855.33
2019-01-29T00:27:18.035Z,96852.42
2019-01-29T00:29:48.901Z,96864.69
2019-01-29T00:32:19.858Z,96857.86
2019-01-29T00:34:50.884Z,96868.16
2019-01-29T00:37:21.835Z,96863.00
2019-01-29T00:39:52.851Z,96869.41
2019-01-29T00:42:23.853Z,96879.67
2019-01-29T00:44:54.790Z,96874.13
2019-01-29T00:47:25.629Z,96882.36
2019-01-29T00:49:56.584Z,96890.06
2019-01-29T00:52:27.552Z,96896.12
2019-01-29T00:54:58.405Z,96902.56
2019-01-29T00:57:29.247Z,96890.65
2019-01-29T01:00:00.292Z,96904.38
2019-01-29T01:02:31.242Z,96905.72
2019-01-29T01:05:02.280Z,96916.01
2019-01-29T01:07:33.384Z,96908.38
2019-01-29T01:10:07.517Z,96918.26
2019-01-29T01:12:38.453Z,96907.63
2019-01-29T01:15:11.474Z,96926.02
2019-01-29T01:17:42.511Z,96935.80
2019-01-29T01:20:18.182Z,96920.45
2019-01-29T01:22:51.171Z,96928.98
2019-01-29T01:25:21.764Z,96925.72
2019-01-29T01:27:52.698Z,96930.00
2019-01-29T01:30:23.713Z,96941.59
2019-01-29T01:32:54.665Z,96940.75
2019-01-29T01:35:25.531Z,96934.70
2019-01-29T01:37:56.475Z,96946.20
2019-01-29T01:40:27.479Z,96942.39
2019-01-29T01:42:58.781Z,96933.88
2019-01-29T01:45:29.714Z,96948.36
2019-01-29T01:48:00.891Z,96957.09
2019-01-29T01:50:31.766Z,96951.23
2019-01-29T01:53:02.689Z,96950.04
2019-01-29T01:55:33.733Z,96958.11
2019-01-29T01:58:04.819Z,96962.53
2019-01-29T02:00:36.312Z,96958.16
2019-01-29T02:03:07.307Z,96960.70
2019-01-29T02:05:38.331Z,96971.69
2019-01-29T02:08:09.269Z,96969.95
2019-01-29T02:10:40.330Z,96974.34
2019-01-29T02:13:11.340Z,96975.64
2019-01-29T02:15:42.391Z,96978.23
2019-01-29T02:18:13.413Z,96975.27
2019-01-29T02:20:44.445Z,96981.23
2019-01-29T02:23:15.459Z,96980.71
2019-01-29T02:25:46.396Z,96991.37
2019-01-29T02:28:17.525Z,96998.65
2019-01-29T02:30:48.514Z,97005.95
2019-01-29T02:33:19.487Z,96993.77
2019-01-29T02:35:50.423Z,96998.77
2019-01-29T02:38:21.378Z,97000.41
2019-01-29T02:40:52.647Z,97003.70
2019-01-29T02:43:23.664Z,97016.11
2019-01-29T02:45:54.602Z,97012.16
2019-01-29T02:48:25.699Z,97016.77
2019-01-29T02:50:56.645Z,97013.39
2019-01-29T02:53:27.616Z,97012.52
2019-01-29T02:55:58.676Z,97019.77
2019-01-29T02:58:29.544Z,97020.62
2019-01-29T03:01:00.491Z,97019.74
2019-01-29T03:03:31.494Z,97027.00
2019-01-29T03:06:02.468Z,97025.66
2019-01-29T03:08:33.472Z,97031.64
2019-01-29T03:11:04.615Z,97034.99
2019-01-29T03:13:35.538Z,97043.75
2019-01-29T03:16:06.488Z,97044.55
2019-01-29T03:18:37.419Z,97048.71
2019-01-29T03:21:08.366Z,97052.56
2019-01-29T03:23:39.202Z,97058.51
2019-01-29T03:26:10.199Z,97064.48
2019-01-29T03:28:41.093Z,97059.77
2019-01-29T03:31:12.027Z,97070.52
2019-01-29T03:33:42.912Z,97073.47
2019-01-29T03:36:13.916Z,97079.85
2019-01-29T03:38:44.862Z,97073.44
2019-01-29T03:41:15.853Z,97085.42
2019-01-29T03:43:46.791Z,97083.31
2019-01-29T03:46:17.815Z,97084.13
2019-01-29T03:48:48.763Z,97085.36
2019-01-29T03:51:19.851Z,97099.53
2019-01-29T03:53:50.864Z,97096.87
2019-01-29T03:56:21.790Z,97103.27
2019-01-29T03:58:52.665Z,97103.27
2019-01-29T04:01:23.621Z,97107.47
2019-01-29T04:03:54.561Z,97100.56
2019-01-29T04:06:25.519Z,97103.53
2019-01-29T04:08:56.434Z,97106.48
2019-01-29T04:11:27.435Z,97112.48
2019-01-29T04:13:58.363Z,97112.05
2019-01-29T04:16:29.304Z,97120.59
2019-01-29T04:19:00.302Z,97116.66
2019-01-29T04:21:31.261Z,97114.91
2019-01-29T04:24:02.154Z,97115.73
2019-01-29T04:26:33.113Z,97126.84
2019-01-29T04:29:04.222Z,97118.27
2019-01-29T04:31:35.182Z,97122.34
2019-01-29T04:34:06.203Z,97122.34
2019-01-29T04:36:37.254Z,97118.50
2019-01-29T04:39:08.730Z,97122.78
2019-01-29T04:41:39.684Z,97120.63
2019-01-29T04:44:10.598Z,97129.17
2019-01-29T04:46:41.755Z,97118.47
2019-01-29T04:49:12.646Z,97130.83
2019-01-29T04:51:43.523Z,97129.14
2019-01-29T04:54:14.505Z,97125.75
2019-01-29T04:56:45.450Z,97132.98
2019-01-29T04:59:16.394Z,97135.14
2019-01-29T05:01:47.319Z,97144.13
2019-01-29T05:04:18.309Z,97133.91
2019-01-29T05:06:49.840Z,97144.67
2019-01-29T05:09:20.813Z,97141.26
2019-01-29T05:11:51.754Z,97140.84
2019-01-29T05:14:22.705Z,97144.27
2019-01-29T05:16:53.642Z,97148.11
2019-01-29T05:19:24.530Z,97148.98
2019-01-29T05:21:55.464Z,97155.39
2019-01-29T05:24:26.481Z,97155.83
2019-01-29T05:26:57.500Z,97154.98
2019-01-29T05:29:28.455Z,97156.24
2019-01-29T05:31:59.591Z,97159.70
2019-01-29T05:34:30.578Z,97161.83
2019-01-29T05:37:01.594Z,97165.27
2019-01-29T05:39:32.496Z,97171.27
2019-01-29T05:42:03.452Z,97179.77
2019-01-29T05:44:34.419Z,97183.18
2019-01-29T05:47:05.457Z,97177.20
2019-01-29T05:49:36.518Z,97187.47
2019-01-29T05:52:07.523Z,97185.34
2019-01-29T05:54:38.463Z,97193.47
2019-01-29T05:57:09.386Z,97202.02
2019-01-29T05:59:40.479Z,97208.42
2019-01-29T06:02:11.571Z,97205.84
2019-01-29T06:04:42.497Z,97208.42
2019-01-29T06:07:13.447Z,97214.84
2019-01-29T06:09:44.629Z,97209.30
2019-01-29T06:12:15.609Z,97214.41
2019-01-29T06:14:46.666Z,97215.23
2019-01-29T06:17:17.535Z,97215.27
2019-01-29T06:19:48.394Z,97225.30
2019-01-29T06:22:19.551Z,97213.34
2019-01-29T06:24:50.365Z,97224.47
2019-01-29T06:27:21.312Z,97235.14
2019-01-29T06:29:52.266Z,97232.14
2019-01-29T06:32:23.141Z,97230.02
2019-01-29T06:34:54.139Z,97236.06
2019-01-29T06:37:25.162Z,97233.50
2019-01-29T06:39:56.040Z,97232.66
2019-01-29T06:42:27.067Z,97239.94
2019-01-29T06:44:58.105Z,97239.09
2019-01-29T06:47:29.194Z,97237.78
2019-01-29T06:50:00.267Z,97238.63
2019-01-29T06:52:31.294Z,97240.34
2019-01-29T06:55:02.243Z,97243.78
2019-01-29T06:57:33.200Z,97248.52
2019-01-29T07:00:07.081Z,97246.41
2019-01-29T07:02:38.077Z,97245.62
2019-01-29T07:05:09.088Z,97242.63
2019-01-29T07:07:40.100Z,97248.91
2019-01-29T07:10:14.111Z,97250.20
2019-01-29T07:12:45.234Z,97268.12
2019-01-29T07:15:20.350Z,97265.95
2019-01-29T07:17:51.210Z,97259.90
2019-01-29T07:20:22.170Z,97262.90
2019-01-29T07:22:53.162Z,97266.77
2019-01-29T07:25:24.080Z,97273.20
2019-01-29T07:27:55.135Z,97274.70
2019-01-29T07:30:26.091Z,97284.11
2019-01-29T07:32:57.130Z,97275.56
2019-01-29T07:35:28.114Z,97275.16
2019-01-29T07:37:59.078Z,97276.84
2019-01-29T07:40:30.154Z,97278.55
2019-01-29T07:43:01.107Z,97284.11
2019-01-29T07:45:32.027Z,97284.98
2019-01-29T07:48:04.163Z,97291.38
2019-01-29T07:50:35.159Z,97292.66
2019-01-29T07:53:06.975Z,97291.80
2019-01-29T07:55:37.836Z,97296.02
2019-01-29T07:58:08.780Z,97297.25
2019-01-29T08:00:39.749Z,97291.23
2019-01-29T08:03:10.686Z,97295.97
2019-01-29T08:05:41.688Z,97292.93
2019-01-29T08:08:13.068Z,97286.88
2019-01-29T08:10:44.046Z,97290.73
2019-01-29T08:13:15.144Z,97296.70
2019-01-29T08:15:46.135Z,97298.36
2019-01-29T08:18:17.083Z,97299.20
2019-01-29T08:20:47.985Z,97299.52
2019-01-29T08:23:19.048Z,97293.55
2019-01-29T08:25:49.990Z,97295.53
2019-01-29T08:28:21.016Z,97299.34
2019-01-29T08:30:51.876Z,97303.06
2019-01-29T08:33:22.786Z,97302.13
2019-01-29T08:35:53.786Z,97311.06
2019-01-29T08:38:24.737Z,97308.92
2019-01-29T08:40:55.661Z,97315.37
2019-01-29T08:43:26.598Z,97313.31
2019-01-29T08:45:59.470Z,97314.14
2019-01-29T08:48:30.144Z,97314.58
2019-01-29T08:51:01.115Z,97317.84
2019-01-29T08:53:31.994Z,97314.72
2019-01-29T08:56:03.034Z,97315.90
2019-01-29T08:58:33.967Z,97318.48
2019-01-29T09:01:05.300Z,97312.84
2019-01-29T09:03:36.199Z,97314.70
2019-01-29T09:06:07.198Z,97315.08
2019-01-29T09:08:38.115Z,97309.56
2019-01-29T09:11:09.122Z,97317.19
2019-01-29T09:13:40.588Z,97320.03
2019-01-29T09:16:11.997Z,97309.67
2019-01-29T09:18:43.014Z,97310.87
2019-01-29T09:21:13.951Z,97318.70
2019-01-29T09:23:44.831Z,97314.47
2019-01-29T09:26:15.669Z,97312.59
2019-01-29T09:28:46.709Z,97311.44
2019-01-29T09:31:17.763Z,97313.85
2019-01-29T09:33:48.691Z,97317.52
2019-01-29T09:36:19.663Z,97313.09
2019-01-29T09:38:50.671Z,97319.16
2019-01-29T09:41:21.611Z,97325.61
2019-01-29T09:43:52.539Z,97318.55
2019-01-29T09:46:23.580Z,97316.87
2019-01-29T09:48:54.489Z,97324.73
2019-01-29T09:51:25.417Z,97326.14
2019-01-29T09:53:56.358Z,97327.84
2019-01-29T09:56:27.327Z,97320.09
2019-01-29T09:58:58.259Z,97317.39
2019-01-29T10:01:29.280Z,97317.86
2019-01-29T10:04:00.257Z,97319.31
2019-01-29T10:06:31.309Z,97318.91
2019-01-29T10:09:02.252Z,97318.72
2019-01-29T10:11:33.284Z,97322.59
2019-01-29T10:14:05.012Z,97309.27
2019-01-29T10:16:35.878Z,97296.00
2019-01-29T10:19:06.833Z,97295.01
2019-01-29T10:21:37.772Z,97286.92
2019-01-29T10:24:08.725Z,97285.69
2019-01-29T10:26:39.658Z,97286.23
2019-01-29T10:29:10.587Z,97284.86
2019-01-29T10:31:41.634Z,97282.30
2019-01-29T10:34:12.550Z,97276.93
2019-01-29T10:36:43.545Z,97278.34
2019-01-29T10:39:14.474Z,97271.98
2019-01-29T10:41:47.190Z,97265.23
2019-01-29T10:44:18.070Z,97264.31
2019-01-29T10:46:49.061Z,97263.87
2019-01-29T10:49:19.979Z,97255.10
2019-01-29T10:51:51.009Z,97249.36
2019-01-29T10:54:21.995Z,97248.19
2019-01-29T10:56:52.974Z,97249.52
2019-01-29T10:59:23.892Z,97241.59
2019-01-29T11:01:54.941Z,97243.25
2019-01-29T11:04:25.877Z,97239.98
2019-01-29T11:06:56.879Z,97241.20
2019-01-29T11:09:27.799Z,97231.08
2019-01-29T11:11:58.828Z,97218.95
2019-01-29T11:14:29.760Z,97219.70
2019-01-29T11:17:00.741Z,97219.97
2019-01-29T11:19:31.755Z,97219.63
2019-01-29T11:22:02.608Z,97208.52
2019-01-29T11:24:33.690Z,97202.56
2019-01-29T11:27:04.697Z,97201.09
2019-01-29T11:29:35.715Z,97203.78
2019-01-29T11:32:06.703Z,97200.06
2019-01-29T11:34:37.663Z,97192.30
2019-01-29T11:37:08.594Z,97194.88
2019-01-29T11:39:39.610Z,97184.02
2019-01-29T11:42:10.565Z,97183.73
2019-01-29T11:44:41.726Z,97180.88
2019-01-29T11:47:12.734Z,97184.55
2019-01-29T11:49:43.674Z,97185.44
2019-01-29T11:52:14.616Z,97182.58
2019-01-29T11:54:45.571Z,97188.16
2019-01-29T11:57:16.528Z,97181.04
2019-01-29T11:59:47.519Z,97178.46
2019-01-29T12:02:18.655Z,97177.20
2019-01-29T12:04:49.548Z,97167.11
2019-01-29T12:07:20.623Z,97171.13
2019-01-29T12:09:51.530Z,97171.48
2019-01-29T12:12:22.346Z,97173.17
2019-01-29T12:14:53.302Z,97162.69
2019-01-29T12:17:24.230Z,97167.76
2019-01-29T12:19:55.163Z,97166.11
2019-01-29T12:22:26.154Z,97161.22
2019-01-29T12:24:57.158Z,97155.55
2019-01-29T12:27:28.040Z,97149.36
2019-01-29T12:29:59.064Z,97140.49
2019-01-29T12:32:30.098Z,97146.57
2019-01-29T12:35:01.150Z,97139.95
2019-01-29T12:37:32.227Z,97133.75
2019-01-29T12:40:03.241Z,97140.20
2019-01-29T12:42:34.182Z,97123.70
2019-01-29T12:45:08.614Z,97125.30
2019-01-29T12:47:39.635Z,97127.45
2019-01-29T12:50:16.307Z,97123.48
2019-01-29T12:52:49.046Z,97125.93
2019-01-29T12:55:20.019Z,97126.31
2019-01-29T12:57:50.973Z,97116.65
2019-01-29T13:00:23.820Z,97112.43
2019-01-29T13:02:54.822Z,97099.11
2019-01-29T13:05:25.759Z,97104.81
2019-01-29T13:07:56.773Z,97095.55
2019-01-29T13:10:27.969Z,97099.67
2019-01-29T13:12:59.019Z,97100.33
2019-01-29T13:15:31.509Z,97103.45
2019-01-29T13:18:02.818Z,97098.60
2019-01-29T13:20:33.831Z,97090.94
2019-01-29T13:23:04.931Z,97091.95
2019-01-29T13:25:41.344Z,97086.48
2019-01-29T13:28:19.981Z,97072.84
2019-01-29T13:30:52.935Z,97073.98
2019-01-29T13:33:24.233Z,97073.74
2019-01-29T13:35:55.490Z,97070.25
2019-01-29T13:38:29.656Z,97062.86
2019-01-29T13:41:04.601Z,97059.17
2019-01-29T13:43:35.712Z,97067.63
2019-01-29T13:46:06.673Z,97064.69
2019-01-29T13:48:37.895Z,97063.54
2019-01-29T13:51:08.965Z,97058.38
2019-01-29T13:53:39.858Z,97062.56
2019-01-29T13:56:11.084Z,97052.73
2019-01-29T13:58:42.080Z,97050.27
2019-01-29T14:01:13.214Z,97051.91
2019-01-29T14:03:44.169Z,97051.60
2019-01-29T14:06:15.175Z,97061.00
2019-01-29T14:08:46.159Z,97060.88
2019-01-29T14:11:17.151Z,97054.73
2019-01-29T14:13:48.128Z,97052.32
2019-01-29T14:16:19.109Z,97045.63
2019-01-29T14:18:50.107Z,97044.72
2019-01-29T14:21:21.059Z,97050.13
2019-01-29T14:23:52.001Z,97044.97
2019-01-29T14:26:23.129Z,97042.39
2019-01-29T14:28:54.069Z,97036.40
2019-01-29T14:32:21.114Z,97034.78
2019-01-29T14:34:52.409Z,97039.20
2019-01-29T14:37:23.360Z,97040.34
2019-01-29T14:40:08.840Z,97036.70
2019-01-29T14:42:39.741Z,97034.89
2019-01-29T14:45:13.635Z,97032.48
2019-01-29T14:47:45.083Z,97028.43
2019-01-29T14:50:16.930Z,97023.00
2019-01-29T14:52:47.815Z,97022.41
2019-01-29T14:55:20.305Z,97023.70
2019-01-29T14:57:51.577Z,97013.77
2019-01-29T15:00:31.075Z,97014.77
2019-01-29T15:03:02.090Z,97009.40
2019-01-29T15:05:33.551Z,97006.72
2019-01-29T15:08:05.266Z,97001.57
2019-01-29T15:10:36.382Z,97002.52
2019-01-29T15:13:07.479Z,97003.85
2019-01-29T15:15:43.363Z,97000.55
2019-01-29T15:18:16.018Z,97006.32
2019-01-29T15:20:47.040Z,97001.80
2019-01-29T15:23:18.055Z,96996.81
2019-01-29T15:25:51.805Z,97003.34
2019-01-29T15:28:22.928Z,97001.80
2019-01-29T15:30:53.916Z,96997.69
2019-01-29T15:33:24.921Z,96994.75
2019-01-29T15:35:55.807Z,96994.38
2019-01-29T15:38:27.218Z,97003.48
2019-01-29T15:40:58.164Z,96993.45
2019-01-29T15:43:29.211Z,96989.22
2019-01-29T15:46:00.173Z,96992.81
2019-01-29T15:48:31.190Z,96984.88
2019-01-29T15:51:02.051Z,96985.15
2019-01-29T15:53:33.111Z,96986.16
2019-01-29T15:56:04.471Z,96976.84
2019-01-29T15:58:35.467Z,96980.82
2019-01-29T16:01:06.517Z,96979.20
2019-01-29T16:03:37.530Z,96975.45
2019-01-29T16:06:08.556Z,96971.66
2019-01-29T16:08:39.490Z,96968.28
2019-01-29T16:11:10.515Z,96968.72
2019-01-29T16:13:41.476Z,96968.89
2019-01-29T16:16:12.554Z,96967.20
2019-01-29T16:18:43.565Z,96965.61
2019-01-29T16:21:14.520Z,96963.17
2019-01-29T16:23:45.636Z,96956.44
2019-01-29T16:26:16.594Z,96955.31
2019-01-29T16:28:47.470Z,96960.39
2019-01-29T16:31:18.409Z,96955.69
2019-01-29T16:33:49.432Z,96953.69
2019-01-29T16:36:20.567Z,96958.86
2019-01-29T16:38:51.572Z,96950.41
2019-01-29T16:41:22.789Z,96953.75
2019-01-29T16:43:53.796Z,96944.02
2019-01-29T16:46:24.802Z,96948.31
2019-01-29T16:48:55.861Z,96949.59
2019-01-29T16:51:26.799Z,96944.49
2019-01-29T16:53:57.728Z,96941.08
2019-01-29T16:56:28.764Z,96936.83
2019-01-29T16:59:01.322Z,96938.61
2019-01-29T17:01:32.470Z,96938.64
2019-01-29T17:04:03.697Z,96933.20
2019-01-29T17:06:34.534Z,96934.20
2019-01-29T17:09:08.400Z,96930.51
2019-01-29T17:11:39.342Z,96933.16
2019-01-29T17:14:10.399Z,96924.31
2019-01-29T17:16:41.327Z,96929.63
2019-01-29T17:19:12.468Z,96917.45
2019-01-29T17:21:43.507Z,96914.36
2019-01-29T17:24:14.384Z,96919.37
2019-01-29T17:26:45.443Z,96913.65
2019-01-29T17:29:16.502Z,96910.93
2019-01-29T17:31:47.448Z,96911.91
2019-01-29T17:34:18.471Z,96907.81
2019-01-29T17:36:49.481Z,96905.47
2019-01-29T17:39:20.647Z,96897.97
2019-01-29T17:41:51.619Z,96900.13
2019-01-29T17:44:22.731Z,96905.41
2019-01-29T17:46:53.774Z,96900.67
2019-01-29T17:49:24.908Z,96897.35
2019-01-29T17:51:55.812Z,96889.26
2019-01-29T17:54:26.672Z,96886.72
2019-01-29T17:56:57.673Z,96885.93
2019-01-29T17:59:28.623Z,96882.70
2019-01-29T18:01:59.577Z,96873.90
2019-01-29T18:04:30.563Z,96871.93
2019-01-29T18:07:01.507Z,96867.06
2019-01-29T18:09:32.466Z,96869.05
2019-01-29T18:12:03.445Z,96861.59
2019-01-29T18:14:34.463Z,96857.48
2019-01-29T18:17:05.415Z,96848.65
2019-01-29T18:19:36.369Z,96847.55
2019-01-29T18:22:07.524Z,96844.30
2019-01-29T18:24:38.471Z,96843.92
2019-01-29T18:27:09.581Z,96838.42
2019-01-29T18:29:40.471Z,96831.80
2019-01-29T18:32:11.441Z,96822.90
2019-01-29T18:34:42.457Z,96815.27
2019-01-29T18:37:13.525Z,96817.72
2019-01-29T18:39:44.688Z,96818.52
2019-01-29T18:42:15.688Z,96809.48
2019-01-29T18:44:46.641Z,96800.51
2019-01-29T18:47:17.686Z,96803.24
2019-01-29T18:49:48.721Z,96793.95
2019-01-29T18:52:19.692Z,96790.13
2019-01-29T18:54:50.731Z,96785.51
2019-01-29T18:57:21.907Z,96791.89
2019-01-29T18:59:52.976Z,96782.57
2019-01-29T19:02:23.959Z,96783.80
2019-01-29T19:04:56.217Z,96781.77
2019-01-29T19:07:27.296Z,96783.61
2019-01-29T19:09:58.503Z,96779.93
2019-01-29T19:12:29.655Z,96775.88
2019-01-29T19:15:00.681Z,96784.98
2019-01-29T19:17:31.687Z,96780.77
2019-01-29T19:20:02.656Z,96777.44
2019-01-29T19:22:33.615Z,96776.27
2019-01-29T19:25:07.114Z,96774.59
2019-01-29T19:27:38.174Z,96773.42
2019-01-29T19:30:20.845Z,96766.77
2019-01-29T19:32:51.797Z,96767.35
2019-01-29T19:35:22.974Z,96763.17
2019-01-29T19:37:53.961Z,96760.63
2019-01-29T19:40:26.082Z,96758.17
2019-01-29T19:42:57.350Z,96765.24
2019-01-29T19:45:38.824Z,96759.36
2019-01-29T19:48:09.918Z,96754.89
2019-01-29T19:50:41.000Z,96754.50
2019-01-29T19:53:12.048Z,96751.80
2019-01-29T19:55:43.352Z,96747.57
2019-01-29T19:58:14.303Z,96748.33
2019-01-29T20:00:45.419Z,96743.17
2019-01-29T20:03:16.724Z,96744.11
2019-01-29T20:05:47.990Z,96729.54
2019-01-29T20:08:19.132Z,96727.04
2019-01-29T20:10:50.145Z,96731.77
2019-01-29T20:13:22.727Z,96722.74
2019-01-29T20:15:53.724Z,96719.02
2019-01-29T20:18:24.896Z,96717.69
2019-01-29T20:20:55.814Z,96710.03
2019-01-29T20:23:26.764Z,96702.30
2019-01-29T20:25:57.940Z,96700.69
2019-01-29T20:28:28.976Z,96699.42
2019-01-29T20:31:00.061Z,96689.25
2019-01-29T20:33:31.035Z,96692.23
2019-01-29T20:36:02.099Z,96686.84
2019-01-29T20:38:35.235Z,96685.69
2019-01-29T20:41:05.804Z,96684.17
2019-01-29T20:43:36.886Z,96683.38
2019-01-29T20:46:07.907Z,96677.98
2019-01-29T20:48:39.029Z,96674.79
2019-01-29T20:51:10.112Z,96672.00
2019-01-29T20:53:41.090Z,96670.84
2019-01-29T20:56:11.961Z,96667.39
2019-01-29T20:58:52.290Z,96668.31
2019-01-29T21:01:15.664Z,96667.72
2019-01-29T21:03:46.774Z,96661.28
2019-01-29T21:06:17.785Z,96662.04
2019-01-29T21:08:48.709Z,96662.07
2019-01-29T21:11:20.003Z,96652.98
2019-01-29T21:13:51.178Z,96646.90
2019-01-29T21:16:22.140Z,96646.95
2019-01-29T21:18:53.091Z,96641.54
2019-01-29T21:21:24.201Z,96639.41
2019-01-29T21:23:55.248Z,96635.95
2019-01-29T21:26:26.268Z,96636.75
2019-01-29T21:29:03.238Z,96635.01
2019-01-29T21:31:29.918Z,96629.89
2019-01-29T21:34:00.882Z,96629.08
2019-01-29T21:36:31.758Z,96623.96
2019-01-29T21:39:03.228Z,96623.61
2019-01-29T21:41:34.265Z,96622.27
2019-01-29T21:44:05.615Z,96615.59
2019-01-29T21:46:36.701Z,96612.48
2019-01-29T21:49:07.792Z,96613.14
2019-01-29T21:51:38.930Z,96606.42
2019-01-29T21:54:09.989Z,96601.39
2019-01-29T21:56:40.961Z,96602.17
2019-01-29T21:59:13.298Z,96600.13
2019-01-29T22:01:44.808Z,96592.91
2019-01-29T22:04:15.867Z,96585.72
2019-01-29T22:06:53.153Z,96586.09
2019-01-29T22:09:30.645Z,96578.44
2019-01-29T22:12:01.612Z,96577.22
2019-01-29T22:14:32.595Z,96576.80
2019-01-29T22:17:03.502Z,96574.73
2019-01-29T22:19:34.486Z,96565.02
2019-01-29T22:22:05.613Z,96563.80
2019-01-29T22:24:36.571Z,96557.05
2019-01-29T22:27:07.643Z,96558.97
2019-01-29T22:29:38.659Z,96553.58
2019-01-29T22:32:09.641Z,96549.89
2019-01-29T22:34:40.603Z,96549.53
2019-01-29T22:37:11.705Z,96536.84
2019-01-29T22:39:42.811Z,96539.02
2019-01-29T22:42:13.934Z,96533.92
2019-01-29T22:44:44.842Z,96532.75
2019-01-29T22:47:15.768Z,96525.23
2019-01-29T22:49:46.919Z,96533.39
2019-01-29T22:52:17.883Z,96529.25
2019-01-29T22:54:48.928Z,96526.30
2019-01-29T22:57:19.869Z,96520.39
2019-01-29T22:59:50.880Z,96516.58
2019-01-29T23:02:21.964Z,96510.14
2019-01-29T23:04:52.934Z,96507.03
2019-01-29T23:07:24.024Z,96502.27
2019-01-29T23:09:55.117Z,96499.20
2019-01-29T23:12:26.292Z,96492.38
2019-01-29T23:14:57.188Z,96489.00
2019-01-29T23:17:28.126Z,96484.35
2019-01-29T23:19:59.207Z,96494.20
2019-01-29T23:22:30.151Z,96473.95
2019-01-29T23:25:01.122Z,96473.26
2019-01-29T23:27:32.264Z,96464.54
2019-01-29T23:30:03.275Z,96466.64
2019-01-29T23:32:34.226Z,96465.28
2019-01-29T23:35:06.987Z,96464.63
2019-01-29T23:37:37.967Z,96458.45
2019-01-29T23:40:14.827Z,96454.15
2019-01-29T23:42:45.867Z,96444.20
2019-01-29T23:45:17.224Z,96441.57
2019-01-29T23:47:49.901Z,96441.23
2019-01-29T23:50:20.973Z,96442.50
2019-01-29T23:52:51.871Z,96426.66
2019-01-29T23:55:22.914Z,96431.81
2019-01-29T23:57:53.938Z,96426.27
